sensor_id;sensor_type;location;lat;lon;timestamp;pressure;altitude;pressure_sealevel;temperature;humidity
78117;BME280;69042;59.120;37.904;2024-01-07T00:01:39;100786.00;;;-10.77;48.25
78117;BME280;69042;59.120;37.904;2024-01-07T00:04:05;100779.16;;;-10.94;47.84
78117;BME280;69042;59.120;37.904;2024-01-07T00:06:32;100781.38;;;-11.00;48.22
78117;BME280;69042;59.120;37.904;2024-01-07T00:08:58;100782.94;;;-11.02;47.99
78117;BME280;69042;59.120;37.904;2024-01-07T00:11:25;100801.63;;;-10.99;48.23
78117;BME280;69042;59.120;37.904;2024-01-07T00:13:51;100789.22;;;-11.11;48.20
78117;BME280;69042;59.120;37.904;2024-01-07T00:16:17;100791.47;;;-11.15;47.93
78117;BME280;69042;59.120;37.904;2024-01-07T00:18:44;100803.56;;;-11.09;47.97
78117;BME280;69042;59.120;37.904;2024-01-07T00:21:11;100789.25;;;-11.25;47.83
78117;BME280;69042;59.120;37.904;2024-01-07T00:23:37;100804.78;;;-11.18;47.74
78117;BME280;69042;59.120;37.904;2024-01-07T00:26:04;100810.44;;;-11.22;47.92
78117;BME280;69042;59.120;37.904;2024-01-07T00:28:30;100802.00;;;-11.37;47.47
78117;BME280;69042;59.120;37.904;2024-01-07T00:30:56;100811.94;;;-11.40;46.99
78117;BME280;69042;59.120;37.904;2024-01-07T00:33:23;100809.84;;;-11.47;47.23
78117;BME280;69042;59.120;37.904;2024-01-07T00:35:49;100820.53;;;-11.52;47.26
78117;BME280;69042;59.120;37.904;2024-01-07T00:38:16;100836.78;;;-11.46;47.15
78117;BME280;69042;59.120;37.904;2024-01-07T00:40:43;100823.22;;;-11.63;47.20
78117;BME280;69042;59.120;37.904;2024-01-07T00:43:10;100832.34;;;-11.65;47.37
78117;BME280;69042;59.120;37.904;2024-01-07T00:48:53;100829.44;;;-11.71;47.60
78117;BME280;69042;59.120;37.904;2024-01-07T00:51:19;100826.66;;;-11.76;47.99
78117;BME280;69042;59.120;37.904;2024-01-07T00:53:46;100830.25;;;-11.73;47.29
78117;BME280;69042;59.120;37.904;2024-01-07T00:56:12;100819.78;;;-11.79;47.54
78117;BME280;69042;59.120;37.904;2024-01-07T00:58:39;100819.09;;;-11.76;47.40
78117;BME280;69042;59.120;37.904;2024-01-07T01:01:05;100811.16;;;-11.82;47.55
78117;BME280;69042;59.120;37.904;2024-01-07T01:03:32;100825.09;;;-11.74;47.10
78117;BME280;69042;59.120;37.904;2024-01-07T01:05:58;100834.50;;;-11.71;47.42
78117;BME280;69042;59.120;37.904;2024-01-07T01:08:25;100840.22;;;-11.74;47.47
78117;BME280;69042;59.120;37.904;2024-01-07T01:10:52;100828.81;;;-11.82;47.43
78117;BME280;69042;59.120;37.904;2024-01-07T01:13:18;100821.72;;;-11.89;47.33
78117;BME280;69042;59.120;37.904;2024-01-07T01:15:45;100838.31;;;-11.78;47.11
78117;BME280;69042;59.120;37.904;2024-01-07T01:18:11;100818.16;;;-11.93;47.25
78117;BME280;69042;59.120;37.904;2024-01-07T01:20:38;100837.78;;;-11.87;47.12
78117;BME280;69042;59.120;37.904;2024-01-07T01:23:04;100832.22;;;-11.97;46.64
78117;BME280;69042;59.120;37.904;2024-01-07T01:25:31;100841.75;;;-11.91;46.70
78117;BME280;69042;59.120;37.904;2024-01-07T01:27:57;100852.53;;;-11.93;47.04
78117;BME280;69042;59.120;37.904;2024-01-07T01:30:24;100826.63;;;-12.06;47.23
78117;BME280;69042;59.120;37.904;2024-01-07T01:32:51;100837.66;;;-12.04;47.11
78117;BME280;69042;59.120;37.904;2024-01-07T01:35:17;100847.75;;;-12.04;47.74
78117;BME280;69042;59.120;37.904;2024-01-07T01:37:44;100852.25;;;-11.98;47.74
78117;BME280;69042;59.120;37.904;2024-01-07T01:40:11;100848.50;;;-12.05;47.79
78117;BME280;69042;59.120;37.904;2024-01-07T01:42:37;100854.50;;;-12.03;47.75
78117;BME280;69042;59.120;37.904;2024-01-07T01:45:04;100867.38;;;-11.98;47.56
78117;BME280;69042;59.120;37.904;2024-01-07T01:47:31;100873.38;;;-11.96;47.45
78117;BME280;69042;59.120;37.904;2024-01-07T01:49:58;100860.63;;;-11.99;47.37
78117;BME280;69042;59.120;37.904;2024-01-07T01:52:25;100856.34;;;-12.00;47.59
78117;BME280;69042;59.120;37.904;2024-01-07T01:54:52;100869.31;;;-11.94;47.38
78117;BME280;69042;59.120;37.904;2024-01-07T01:57:21;100856.16;;;-12.03;47.19
78117;BME280;69042;59.120;37.904;2024-01-07T01:59:48;100850.16;;;-12.05;47.35
78117;BME280;69042;59.120;37.904;2024-01-07T02:02:15;100871.84;;;-11.94;47.50
78117;BME280;69042;59.120;37.904;2024-01-07T02:04:42;100871.72;;;-11.96;47.33
78117;BME280;69042;59.120;37.904;2024-01-07T02:07:09;100853.25;;;-12.09;47.45
78117;BME280;69042;59.120;37.904;2024-01-07T02:09:35;100855.31;;;-12.04;47.87
78117;BME280;69042;59.120;37.904;2024-01-07T02:12:06;100871.56;;;-11.99;47.98
78117;BME280;69042;59.120;37.904;2024-01-07T02:14:38;100862.59;;;-12.08;48.16
78117;BME280;69042;59.120;37.904;2024-01-07T02:17:05;100862.47;;;-12.10;48.32
78117;BME280;69042;59.120;37.904;2024-01-07T02:19:32;100862.59;;;-12.08;48.04
78117;BME280;69042;59.120;37.904;2024-01-07T02:21:59;100878.84;;;-12.03;48.25
78117;BME280;69042;59.120;37.904;2024-01-07T02:24:25;100872.84;;;-12.05;48.55
78117;BME280;69042;59.120;37.904;2024-01-07T02:26:52;100867.03;;;-12.04;48.76
78117;BME280;69042;59.120;37.904;2024-01-07T02:29:18;100890.06;;;-11.98;48.33
78117;BME280;69042;59.120;37.904;2024-01-07T02:31:45;100895.19;;;-11.97;48.57
78117;BME280;69042;59.120;37.904;2024-01-07T02:34:11;100881.91;;;-11.94;48.74
78117;BME280;69042;59.120;37.904;2024-01-07T02:36:38;100889.22;;;-11.84;48.59
78117;BME280;69042;59.120;37.904;2024-01-07T02:39:04;100895.75;;;-11.87;48.99
78117;BME280;69042;59.120;37.904;2024-01-07T02:41:31;100907.03;;;-11.81;49.14
78117;BME280;69042;59.120;37.904;2024-01-07T02:43:57;100894.88;;;-11.88;49.32
78117;BME280;69042;59.120;37.904;2024-01-07T02:46:23;100916.53;;;-11.77;49.58
78117;BME280;69042;59.120;37.904;2024-01-07T02:48:50;100902.59;;;-11.85;49.38
78117;BME280;69042;59.120;37.904;2024-01-07T02:51:16;100914.88;;;-11.76;49.48
78117;BME280;69042;59.120;37.904;2024-01-07T02:53:42;100910.63;;;-11.77;49.61
78117;BME280;69042;59.120;37.904;2024-01-07T02:56:09;100918.19;;;-11.77;49.77
78117;BME280;69042;59.120;37.904;2024-01-07T02:58:35;100922.81;;;-11.70;49.75
78117;BME280;69042;59.120;37.904;2024-01-07T03:01:02;100941.78;;;-11.62;49.76
78117;BME280;69042;59.120;37.904;2024-01-07T03:03:28;100936.38;;;-11.68;49.90
78117;BME280;69042;59.120;37.904;2024-01-07T03:05:55;100951.00;;;-11.62;49.91
78117;BME280;69042;59.120;37.904;2024-01-07T03:08:21;100932.59;;;-11.61;50.01
78117;BME280;69042;59.120;37.904;2024-01-07T03:10:48;100930.34;;;-11.57;49.96
78117;BME280;69042;59.120;37.904;2024-01-07T03:13:14;100938.16;;;-11.52;49.85
78117;BME280;69042;59.120;37.904;2024-01-07T03:15:40;100958.28;;;-11.39;49.91
78117;BME280;69042;59.120;37.904;2024-01-07T03:18:08;100948.00;;;-11.42;49.56
78117;BME280;69042;59.120;37.904;2024-01-07T03:20:34;100945.69;;;-11.39;49.72
78117;BME280;69042;59.120;37.904;2024-01-07T03:23:01;100942.28;;;-11.39;49.85
78117;BME280;69042;59.120;37.904;2024-01-07T03:25:27;100940.53;;;-11.40;50.23
78117;BME280;69042;59.120;37.904;2024-01-07T03:27:54;100933.06;;;-11.39;50.29
78117;BME280;69042;59.120;37.904;2024-01-07T03:30:20;100946.03;;;-11.33;50.62
78117;BME280;69042;59.120;37.904;2024-01-07T03:32:47;100933.94;;;-11.38;50.79
78117;BME280;69042;59.120;37.904;2024-01-07T03:35:14;100941.25;;;-11.28;51.09
78117;BME280;69042;59.120;37.904;2024-01-07T03:37:41;100931.84;;;-11.31;51.42
78117;BME280;69042;59.120;37.904;2024-01-07T03:40:11;100943.59;;;-11.31;51.37
78117;BME280;69042;59.120;37.904;2024-01-07T03:42:40;100958.50;;;-11.21;51.14
78117;BME280;69042;59.120;37.904;2024-01-07T03:45:07;100975.84;;;-11.12;51.31
78117;BME280;69042;59.120;37.904;2024-01-07T03:47:33;100943.38;;;-11.21;50.97
78117;BME280;69042;59.120;37.904;2024-01-07T03:50:00;100946.16;;;-11.16;50.85
78117;BME280;69042;59.120;37.904;2024-01-07T03:52:27;100966.47;;;-11.00;50.94
78117;BME280;69042;59.120;37.904;2024-01-07T03:54:55;100951.66;;;-11.08;50.89
78117;BME280;69042;59.120;37.904;2024-01-07T03:57:21;100943.47;;;-11.04;50.87
78117;BME280;69042;59.120;37.904;2024-01-07T03:59:48;100948.69;;;-11.01;50.80
78117;BME280;69042;59.120;37.904;2024-01-07T04:02:14;100953.03;;;-10.99;50.64
78117;BME280;69042;59.120;37.904;2024-01-07T04:04:42;100958.34;;;-10.94;50.61
78117;BME280;69042;59.120;37.904;2024-01-07T04:07:09;100961.94;;;-10.91;50.27
78117;BME280;69042;59.120;37.904;2024-01-07T04:09:35;100961.94;;;-10.91;50.43
78117;BME280;69042;59.120;37.904;2024-01-07T04:12:02;100965.41;;;-10.88;50.27
78117;BME280;69042;59.120;37.904;2024-01-07T04:14:28;100952.53;;;-10.93;50.42
78117;BME280;69042;59.120;37.904;2024-01-07T04:16:55;100980.22;;;-10.80;49.94
78117;BME280;69042;59.120;37.904;2024-01-07T04:19:25;100985.19;;;-10.81;50.53
78117;BME280;69042;59.120;37.904;2024-01-07T04:21:52;100966.22;;;-10.90;50.66
78117;BME280;69042;59.120;37.904;2024-01-07T04:24:18;100958.34;;;-10.94;50.87
78117;BME280;69042;59.120;37.904;2024-01-07T04:26:47;100965.00;;;-10.96;51.06
78117;BME280;69042;59.120;37.904;2024-01-07T04:29:13;100968.44;;;-10.94;51.18
78117;BME280;69042;59.120;37.904;2024-01-07T04:31:40;100970.91;;;-10.96;51.46
78117;BME280;69042;59.120;37.904;2024-01-07T04:34:06;100975.25;;;-10.93;51.97
78117;BME280;69042;59.120;37.904;2024-01-07T04:36:32;100975.31;;;-11.06;52.24
78117;BME280;69042;59.120;37.904;2024-01-07T04:38:59;100998.13;;;-11.05;52.50
78117;BME280;69042;59.120;37.904;2024-01-07T04:41:25;101003.59;;;-11.12;52.65
78117;BME280;69042;59.120;37.904;2024-01-07T04:43:51;100989.38;;;-11.25;53.02
78117;BME280;69042;59.120;37.904;2024-01-07T04:46:18;100990.84;;;-11.28;53.40
78117;BME280;69042;59.120;37.904;2024-01-07T04:48:44;101001.78;;;-11.28;53.50
78117;BME280;69042;59.120;37.904;2024-01-07T04:51:11;101007.72;;;-11.27;53.53
78117;BME280;69042;59.120;37.904;2024-01-07T04:53:37;101010.03;;;-11.31;53.85
78117;BME280;69042;59.120;37.904;2024-01-07T04:56:04;101018.25;;;-11.35;54.13
78117;BME280;69042;59.120;37.904;2024-01-07T04:58:31;101023.88;;;-11.39;54.06
78117;BME280;69042;59.120;37.904;2024-01-07T05:00:57;101002.66;;;-11.56;54.23
78117;BME280;69042;59.120;37.904;2024-01-07T05:03:23;101031.81;;;-11.46;54.20
78117;BME280;69042;59.120;37.904;2024-01-07T05:05:50;101034.25;;;-11.47;54.43
78117;BME280;69042;59.120;37.904;2024-01-07T05:08:16;101018.28;;;-11.61;54.55
78117;BME280;69042;59.120;37.904;2024-01-07T05:10:42;101019.91;;;-11.62;54.77
78117;BME280;69042;59.120;37.904;2024-01-07T05:13:09;101038.75;;;-11.57;54.78
78117;BME280;69042;59.120;37.904;2024-01-07T05:15:35;101026.34;;;-11.67;55.08
78117;BME280;69042;59.120;37.904;2024-01-07T05:18:02;101019.56;;;-11.68;54.95
78117;BME280;69042;59.120;37.904;2024-01-07T05:20:28;101016.94;;;-11.69;54.89
78117;BME280;69042;59.120;37.904;2024-01-07T05:22:54;101004.94;;;-11.74;54.88
78117;BME280;69042;59.120;37.904;2024-01-07T05:25:21;101025.59;;;-11.66;55.20
78117;BME280;69042;59.120;37.904;2024-01-07T05:27:47;101035.84;;;-11.63;55.49
78117;BME280;69042;59.120;37.904;2024-01-07T05:30:14;101043.50;;;-11.61;55.21
78117;BME280;69042;59.120;37.904;2024-01-07T05:32:40;101032.75;;;-11.72;55.24
78117;BME280;69042;59.120;37.904;2024-01-07T05:35:07;101032.56;;;-11.75;55.28
78117;BME280;69042;59.120;37.904;2024-01-07T05:37:33;101025.94;;;-11.73;55.16
78117;BME280;69042;59.120;37.904;2024-01-07T05:39:59;101034.31;;;-11.74;55.36
78117;BME280;69042;59.120;37.904;2024-01-07T05:42:27;101038.66;;;-11.71;55.29
78117;BME280;69042;59.120;37.904;2024-01-07T05:44:53;101048.25;;;-11.66;55.52
78117;BME280;69042;59.120;37.904;2024-01-07T05:47:20;101041.19;;;-11.71;55.51
78117;BME280;69042;59.120;37.904;2024-01-07T05:49:46;101049.59;;;-11.71;55.65
78117;BME280;69042;59.120;37.904;2024-01-07T05:52:12;101042.56;;;-11.77;55.21
78117;BME280;69042;59.120;37.904;2024-01-07T05:54:40;101048.34;;;-11.78;55.65
78117;BME280;69042;59.120;37.904;2024-01-07T05:57:06;101047.38;;;-11.80;55.36
78117;BME280;69042;59.120;37.904;2024-01-07T05:59:32;101045.47;;;-11.84;55.61
78117;BME280;69042;59.120;37.904;2024-01-07T06:01:59;101068.81;;;-11.73;55.43
78117;BME280;69042;59.120;37.904;2024-01-07T06:04:25;101057.09;;;-11.86;55.44
78117;BME280;69042;59.120;37.904;2024-01-07T06:06:52;101081.22;;;-11.76;55.54
78117;BME280;69042;59.120;37.904;2024-01-07T06:09:18;101062.75;;;-11.90;55.44
78117;BME280;69042;59.120;37.904;2024-01-07T06:11:44;101065.16;;;-11.91;55.35
78117;BME280;69042;59.120;37.904;2024-01-07T06:14:11;101064.97;;;-11.95;55.64
78117;BME280;69042;59.120;37.904;2024-01-07T06:16:37;101072.84;;;-11.90;55.61
78117;BME280;69042;59.120;37.904;2024-01-07T06:19:03;101055.47;;;-11.99;55.51
78117;BME280;69042;59.120;37.904;2024-01-07T06:21:30;101064.69;;;-11.99;55.69
78117;BME280;69042;59.120;37.904;2024-01-07T06:23:56;101063.53;;;-12.04;55.22
78117;BME280;69042;59.120;37.904;2024-01-07T06:26:22;101083.31;;;-11.97;55.27
78117;BME280;69042;59.120;37.904;2024-01-07T06:28:49;101073.31;;;-12.09;55.32
78117;BME280;69042;59.120;37.904;2024-01-07T06:31:16;101067.09;;;-12.14;55.37
78117;BME280;69042;59.120;37.904;2024-01-07T06:33:42;101066.13;;;-12.16;55.34
78117;BME280;69042;59.120;37.904;2024-01-07T06:36:09;101084.72;;;-12.14;55.32
78117;BME280;69042;59.120;37.904;2024-01-07T06:38:35;101089.00;;;-12.13;55.49
78117;BME280;69042;59.120;37.904;2024-01-07T06:41:02;101076.47;;;-12.25;55.31
78117;BME280;69042;59.120;37.904;2024-01-07T06:43:30;101076.09;;;-12.31;55.21
78117;BME280;69042;59.120;37.904;2024-01-07T06:45:58;101087.50;;;-12.36;55.19
78117;BME280;69042;59.120;37.904;2024-01-07T06:48:25;101081.28;;;-12.41;54.96
78117;BME280;69042;59.120;37.904;2024-01-07T06:50:51;101076.75;;;-12.47;55.08
78117;BME280;69042;59.120;37.904;2024-01-07T06:53:18;101088.44;;;-12.47;55.03
78117;BME280;69042;59.120;37.904;2024-01-07T06:55:44;101092.41;;;-12.51;55.22
78117;BME280;69042;59.120;37.904;2024-01-07T06:58:11;101098.88;;;-12.54;55.09
78117;BME280;69042;59.120;37.904;2024-01-07T07:00:37;101097.22;;;-12.54;55.00
78117;BME280;69042;59.120;37.904;2024-01-07T07:03:04;101116.91;;;-12.48;54.97
78117;BME280;69042;59.120;37.904;2024-01-07T07:05:31;101124.91;;;-12.54;55.27
78117;BME280;69042;59.120;37.904;2024-01-07T07:07:58;101111.09;;;-12.61;54.92
78117;BME280;69042;59.120;37.904;2024-01-07T07:10:24;101131.91;;;-12.50;55.37
78117;BME280;69042;59.120;37.904;2024-01-07T07:12:51;101120.25;;;-12.61;55.06
78117;BME280;69042;59.120;37.904;2024-01-07T07:15:18;101130.53;;;-12.58;54.87
78117;BME280;69042;59.120;37.904;2024-01-07T07:17:45;101132.75;;;-12.63;54.92
78117;BME280;69042;59.120;37.904;2024-01-07T07:20:11;101147.84;;;-12.63;54.69
78117;BME280;69042;59.120;37.904;2024-01-07T07:22:38;101151.25;;;-12.62;55.16
78117;BME280;69042;59.120;37.904;2024-01-07T07:25:05;101150.25;;;-12.64;55.08
78117;BME280;69042;59.120;37.904;2024-01-07T07:27:32;101144.25;;;-12.66;54.99
78117;BME280;69042;59.120;37.904;2024-01-07T07:29:59;101143.38;;;-12.67;54.98
78117;BME280;69042;59.120;37.904;2024-01-07T07:32:25;101161.72;;;-12.56;54.96
78117;BME280;69042;59.120;37.904;2024-01-07T07:34:51;101164.88;;;-12.59;55.02
78117;BME280;69042;59.120;37.904;2024-01-07T07:37:17;101153.44;;;-12.67;55.17
78117;BME280;69042;59.120;37.904;2024-01-07T07:39:44;101158.56;;;-12.65;55.16
78117;BME280;69042;59.120;37.904;2024-01-07T07:42:10;101163.03;;;-12.61;55.05
78117;BME280;69042;59.120;37.904;2024-01-07T07:44:37;101173.09;;;-12.61;55.16
78117;BME280;69042;59.120;37.904;2024-01-07T07:47:05;101179.13;;;-12.59;55.35
78117;BME280;69042;59.120;37.904;2024-01-07T07:49:31;101188.06;;;-12.51;55.17
78117;BME280;69042;59.120;37.904;2024-01-07T07:51:57;101173.22;;;-12.60;55.18
78117;BME280;69042;59.120;37.904;2024-01-07T07:54:24;101176.72;;;-12.58;55.36
78117;BME280;69042;59.120;37.904;2024-01-07T07:56:50;101183.28;;;-12.60;55.40
78117;BME280;69042;59.120;37.904;2024-01-07T07:59:16;101182.63;;;-12.57;55.24
78117;BME280;69042;59.120;37.904;2024-01-07T08:01:43;101177.47;;;-12.59;55.00
78117;BME280;69042;59.120;37.904;2024-01-07T08:04:09;101193.97;;;-12.50;55.08
78117;BME280;69042;59.120;37.904;2024-01-07T08:06:36;101180.28;;;-12.54;55.19
78117;BME280;69042;59.120;37.904;2024-01-07T08:09:02;101201.72;;;-12.47;55.04
78117;BME280;69042;59.120;37.904;2024-01-07T08:11:28;101199.81;;;-12.51;54.94
78117;BME280;69042;59.120;37.904;2024-01-07T08:13:55;101192.38;;;-12.62;54.64
78117;BME280;69042;59.120;37.904;2024-01-07T08:16:23;101206.25;;;-12.55;55.00
78117;BME280;69042;59.120;37.904;2024-01-07T08:18:49;101208.56;;;-12.58;55.10
78117;BME280;69042;59.120;37.904;2024-01-07T08:21:16;101195.25;;;-12.69;54.78
78117;BME280;69042;59.120;37.904;2024-01-07T08:23:42;101203.66;;;-12.68;55.02
78117;BME280;69042;59.120;37.904;2024-01-07T08:26:08;101192.41;;;-12.73;54.76
78117;BME280;69042;59.120;37.904;2024-01-07T08:28:34;101209.81;;;-12.65;54.93
78117;BME280;69042;59.120;37.904;2024-01-07T08:31:01;101196.91;;;-12.69;55.27
78117;BME280;69042;59.120;37.904;2024-01-07T08:33:27;101211.66;;;-12.62;55.25
78117;BME280;69042;59.120;37.904;2024-01-07T08:35:55;101206.97;;;-12.69;55.20
78117;BME280;69042;59.120;37.904;2024-01-07T08:38:21;101215.91;;;-12.61;54.74
78117;BME280;69042;59.120;37.904;2024-01-07T08:40:48;101210.16;;;-12.72;54.93
78117;BME280;69042;59.120;37.904;2024-01-07T08:43:14;101213.94;;;-12.65;54.85
78117;BME280;69042;59.120;37.904;2024-01-07T08:45:41;101216.91;;;-12.71;54.99
78117;BME280;69042;59.120;37.904;2024-01-07T08:48:07;101222.50;;;-12.75;55.33
78117;BME280;69042;59.120;37.904;2024-01-07T08:50:34;101218.25;;;-12.76;55.02
78117;BME280;69042;59.120;37.904;2024-01-07T08:53:00;101237.38;;;-12.66;54.85
78117;BME280;69042;59.120;37.904;2024-01-07T08:55:27;101215.63;;;-12.77;55.03
78117;BME280;69042;59.120;37.904;2024-01-07T08:57:53;101213.88;;;-12.79;54.96
78117;BME280;69042;59.120;37.904;2024-01-07T09:00:20;101229.69;;;-12.68;54.99
78117;BME280;69042;59.120;37.904;2024-01-07T09:02:52;101234.06;;;-12.65;55.01
78117;BME280;69042;59.120;37.904;2024-01-07T09:05:19;101218.44;;;-12.73;54.96
78117;BME280;69042;59.120;37.904;2024-01-07T09:07:45;101232.53;;;-12.63;54.73
78117;BME280;69042;59.120;37.904;2024-01-07T09:10:12;101218.44;;;-12.73;55.08
78117;BME280;69042;59.120;37.904;2024-01-07T09:12:39;101219.56;;;-12.69;55.09
78117;BME280;69042;59.120;37.904;2024-01-07T09:15:06;101212.75;;;-12.70;54.83
78117;BME280;69042;59.120;37.904;2024-01-07T09:17:37;101220.72;;;-12.64;54.98
78117;BME280;69042;59.120;37.904;2024-01-07T09:20:05;101201.94;;;-12.69;55.19
78117;BME280;69042;59.120;37.904;2024-01-07T09:22:34;101209.13;;;-12.62;55.23
78117;BME280;69042;59.120;37.904;2024-01-07T09:25:02;101223.75;;;-12.57;55.25
78117;BME280;69042;59.120;37.904;2024-01-07T09:27:30;101215.91;;;-12.61;55.04
78117;BME280;69042;59.120;37.904;2024-01-07T09:29:57;101211.28;;;-12.55;55.46
78117;BME280;69042;59.120;37.904;2024-01-07T09:32:23;101222.78;;;-12.47;55.29
78117;BME280;69042;59.120;37.904;2024-01-07T09:34:50;101199.69;;;-12.53;55.29
78117;BME280;69042;59.120;37.904;2024-01-07T09:37:17;101233.47;;;-12.38;55.36
78117;BME280;69042;59.120;37.904;2024-01-07T09:39:43;101192.31;;;-12.50;55.13
78117;BME280;69042;59.120;37.904;2024-01-07T09:42:15;101212.34;;;-12.40;55.33
78117;BME280;69042;59.120;37.904;2024-01-07T09:44:42;101212.66;;;-12.35;55.46
78117;BME280;69042;59.120;37.904;2024-01-07T09:47:13;101214.69;;;-12.29;55.35
78117;BME280;69042;59.120;37.904;2024-01-07T09:49:40;101216.75;;;-12.24;55.32
78117;BME280;69042;59.120;37.904;2024-01-07T09:52:09;101204.53;;;-12.31;55.56
78117;BME280;69042;59.120;37.904;2024-01-07T09:54:39;101217.25;;;-12.16;55.23
78117;BME280;69042;59.120;37.904;2024-01-07T09:57:07;101216.28;;;-12.18;55.41
78117;BME280;69042;59.120;37.904;2024-01-07T09:59:35;101210.47;;;-12.17;55.52
78117;BME280;69042;59.120;37.904;2024-01-07T10:02:03;101222.91;;;-12.07;55.50
78117;BME280;69042;59.120;37.904;2024-01-07T10:04:29;101223.38;;;-12.12;55.52
78117;BME280;69042;59.120;37.904;2024-01-07T10:06:59;101216.13;;;-12.08;55.63
78117;BME280;69042;59.120;37.904;2024-01-07T10:09:29;101247.84;;;-11.98;55.50
78117;BME280;69042;59.120;37.904;2024-01-07T10:11:56;101217.84;;;-12.07;55.64
78117;BME280;69042;59.120;37.904;2024-01-07T10:14:22;101226.81;;;-11.99;55.62
78117;BME280;69042;59.120;37.904;2024-01-07T10:16:50;101209.66;;;-12.04;55.62
78117;BME280;69042;59.120;37.904;2024-01-07T10:19:23;101243.31;;;-11.90;55.47
78117;BME280;69042;59.120;37.904;2024-01-07T10:22:02;101218.50;;;-11.98;55.73
78117;BME280;69042;59.120;37.904;2024-01-07T10:24:39;101236.03;;;-11.86;55.57
78117;BME280;69042;59.120;37.904;2024-01-07T10:27:08;101223.72;;;-11.95;55.77
78117;BME280;69042;59.120;37.904;2024-01-07T10:29:34;101221.50;;;-11.90;55.41
78117;BME280;69042;59.120;37.904;2024-01-07T10:32:01;101249.69;;;-11.82;55.60
78117;BME280;69042;59.120;37.904;2024-01-07T10:34:34;101238.00;;;-11.82;55.71
78117;BME280;69042;59.120;37.904;2024-01-07T10:37:03;101232.66;;;-11.86;55.37
78117;BME280;69042;59.120;37.904;2024-01-07T10:39:31;101243.78;;;-11.83;55.76
78117;BME280;69042;59.120;37.904;2024-01-07T10:41:57;101240.41;;;-11.83;55.68
78117;BME280;69042;59.120;37.904;2024-01-07T10:44:26;101236.13;;;-11.84;55.92
78117;BME280;69042;59.120;37.904;2024-01-07T10:46:56;101231.59;;;-11.90;55.79
78117;BME280;69042;59.120;37.904;2024-01-07T10:49:24;101227.41;;;-11.89;55.64
78117;BME280;69042;59.120;37.904;2024-01-07T10:52:07;101218.19;;;-11.89;55.79
78117;BME280;69042;59.120;37.904;2024-01-07T10:54:35;101226.13;;;-11.83;56.04
78117;BME280;69042;59.120;37.904;2024-01-07T10:57:15;101244.38;;;-11.74;56.02
78117;BME280;69042;59.120;37.904;2024-01-07T10:59:47;101225.38;;;-11.82;56.14
78117;BME280;69042;59.120;37.904;2024-01-07T11:02:15;101234.13;;;-11.77;56.20
78117;BME280;69042;59.120;37.904;2024-01-07T11:07:33;101236.16;;;-11.71;56.09
78117;BME280;69042;59.120;37.904;2024-01-07T11:12:31;101237.69;;;-11.73;56.20
78117;BME280;69042;59.120;37.904;2024-01-07T11:14:59;101248.84;;;-11.69;56.10
78117;BME280;69042;59.120;37.904;2024-01-07T11:20:20;101247.81;;;-11.60;56.35
78117;BME280;69042;59.120;37.904;2024-01-07T11:22:47;101238.09;;;-11.67;56.34
78117;BME280;69042;59.120;37.904;2024-01-07T11:25:31;101231.31;;;-11.68;56.32
78117;BME280;69042;59.120;37.904;2024-01-07T11:28:01;101229.97;;;-11.63;56.16
78117;BME280;69042;59.120;37.904;2024-01-07T11:30:27;101242.59;;;-11.49;56.20
78117;BME280;69042;59.120;37.904;2024-01-07T11:33:00;101250.84;;;-11.52;56.31
78117;BME280;69042;59.120;37.904;2024-01-07T11:35:59;101262.28;;;-11.44;56.32
78117;BME280;69042;59.120;37.904;2024-01-07T11:38:27;101243.28;;;-11.52;56.32
78117;BME280;69042;59.120;37.904;2024-01-07T11:40:54;101267.31;;;-11.44;56.71
78117;BME280;69042;59.120;37.904;2024-01-07T11:43:22;101249.19;;;-11.38;56.33
78117;BME280;69042;59.120;37.904;2024-01-07T11:45:51;101237.56;;;-11.49;56.34
78117;BME280;69042;59.120;37.904;2024-01-07T11:48:18;101238.59;;;-11.46;56.80
78117;BME280;69042;59.120;37.904;2024-01-07T11:50:45;101242.22;;;-11.42;56.47
78117;BME280;69042;59.120;37.904;2024-01-07T11:53:12;101229.41;;;-11.45;56.49
78117;BME280;69042;59.120;37.904;2024-01-07T11:55:39;101264.91;;;-11.29;56.55
78117;BME280;69042;59.120;37.904;2024-01-07T11:58:05;101248.53;;;-11.36;56.37
78117;BME280;69042;59.120;37.904;2024-01-07T12:00:34;101244.34;;;-11.35;56.51
78117;BME280;69042;59.120;37.904;2024-01-07T12:03:01;101260.00;;;-11.27;56.78
78117;BME280;69042;59.120;37.904;2024-01-07T12:05:28;101257.75;;;-11.36;56.66
78117;BME280;69042;59.120;37.904;2024-01-07T12:07:56;101263.53;;;-11.37;56.37
78117;BME280;69042;59.120;37.904;2024-01-07T12:10:23;101260.84;;;-11.40;56.25
78117;BME280;69042;59.120;37.904;2024-01-07T12:12:50;101259.88;;;-11.42;56.32
78117;BME280;69042;59.120;37.904;2024-01-07T12:15:20;101262.56;;;-11.39;56.58
78117;BME280;69042;59.120;37.904;2024-01-07T12:17:55;101268.22;;;-11.43;55.98
78117;BME280;69042;59.120;37.904;2024-01-07T12:20:23;101263.81;;;-11.46;56.30
78117;BME280;69042;59.120;37.904;2024-01-07T12:22:49;101268.97;;;-11.44;56.33
78117;BME280;69042;59.120;37.904;2024-01-07T12:25:21;101276.94;;;-11.38;56.48
78117;BME280;69042;59.120;37.904;2024-01-07T12:27:49;101263.34;;;-11.40;56.45
78117;BME280;69042;59.120;37.904;2024-01-07T12:30:24;101268.41;;;-11.40;56.27
78117;BME280;69042;59.120;37.904;2024-01-07T12:32:54;101269.38;;;-11.38;56.55
78117;BME280;69042;59.120;37.904;2024-01-07T12:35:21;101257.91;;;-11.46;56.47
78117;BME280;69042;59.120;37.904;2024-01-07T12:37:52;101248.38;;;-11.50;56.42
78117;BME280;69042;59.120;37.904;2024-01-07T12:40:18;101238.72;;;-11.44;56.38
78117;BME280;69042;59.120;37.904;2024-01-07T12:42:46;101231.94;;;-11.45;56.39